TimeEST,TemperatureF,Dew PointF,Humidity,Sea Level PressureIn,VisibilityMPH,Wind Direction,Wind SpeedMPH,Gust SpeedMPH,PrecipitationIn,Events,Conditions,WindDirDegrees,DateUTC
1:53 AM,28.9,26.1,89,30.44,9.0,Calm,Calm,-,N/A,,Clear,0,2013-01-19 06:53:00
2:53 AM,28.0,25.0,88,30.44,9.0,Calm,Calm,-,N/A,,Clear,0,2013-01-19 07:53:00
3:53 AM,28.0,25.0,88,30.44,9.0,Calm,Calm,-,N/A,,Clear,0,2013-01-19 08:53:00
4:53 AM,28.9,25.0,85,30.43,10.0,Calm,Calm,-,N/A,,Clear,0,2013-01-19 09:53:00
5:53 AM,28.9,25.0,85,30.43,10.0,Calm,Calm,-,N/A,,Clear,0,2013-01-19 10:53:00
6:53 AM,25.0,21.9,88,30.43,9.0,Calm,Calm,-,N/A,,Clear,0,2013-01-19 11:53:00
7:53 AM,25.0,21.9,88,30.43,7.0,Calm,Calm,-,N/A,,Clear,0,2013-01-19 12:53:00
8:53 AM,30.0,28.0,92,30.43,10.0,Calm,Calm,-,N/A,,Clear,0,2013-01-19 13:53:00
9:53 AM,36.0,28.9,76,30.42,10.0,Calm,Calm,-,N/A,,Clear,0,2013-01-19 14:53:00
10:53 AM,41.0,27.0,57,30.40,10.0,WNW,4.6,-,N/A,,Clear,290,2013-01-19 15:53:00
11:53 AM,45.0,27.0,49,30.35,10.0,SW,3.5,-,N/A,,Clear,220,2013-01-19 16:53:00
12:53 PM,50.0,27.0,41,30.29,10.0,Variable,5.8,-,N/A,,Clear,0,2013-01-19 17:53:00
1:53 PM,51.1,27.0,39,30.25,10.0,SSW,8.1,16.1,N/A,,Clear,210,2013-01-19 18:53:00
2:53 PM,53.1,26.1,35,30.22,10.0,SSW,8.1,16.1,N/A,,Clear,200,2013-01-19 19:53:00
3:53 PM,52.0,25.0,35,30.20,10.0,South,9.2,-,N/A,,Clear,190,2013-01-19 20:53:00
4:53 PM,51.1,25.0,36,30.19,10.0,SSW,10.4,-,N/A,,Clear,200,2013-01-19 21:53:00
5:53 PM,46.9,23.0,39,30.19,10.0,SSW,5.8,-,N/A,,Clear,200,2013-01-19 22:53:00
6:53 PM,44.1,24.1,45,30.21,10.0,South,3.5,-,N/A,,Clear,190,2013-01-19 23:53:00
7:53 PM,43.0,23.0,45,30.20,10.0,Calm,Calm,-,N/A,,Clear,0,2013-01-20 00:53:00
8:53 PM,41.0,25.0,53,30.18,10.0,South,8.1,-,N/A,,Clear,190,2013-01-20 01:53:00
9:53 PM,39.9,24.1,53,30.17,10.0,SW,4.6,-,N/A,,Clear,220,2013-01-20 02:53:00
10:53 PM,39.0,24.1,55,30.14,10.0,Calm,Calm,-,N/A,,Clear,0,2013-01-20 03:53:00
11:53 PM,37.9,24.1,57,30.12,10.0,WSW,3.5,-,N/A,,Clear,240,2013-01-20 04:53:00